PWSweather.com
Personal Weather Stations
Station Observations
STEFBZH56
PontScorff, PontScorffFR

PontScorffPontScorffFR

Lat: 47.831518, Lon: -3.4222200000000385

Elevation: 141

Station Type: Oregon WMR200

http://www.meteo-pontscorff.fr

Latest ConditionsUpdated 6:20:00 PM GMT+01:01 Sunday, Jan 26, 2020
Currently Today's Max Today's Min Today's Average
Temperature 51.3°F10.7°C 54.2°F12.3°C 43.3°F6.3°C 48.2°F9.0°C
Dew Point 50.7°F10.4°C 52.4°F11.3°C 42.8°F6.0°C 47.3°F8.5°C
Winds 6.0 mph SSW9.7 kmh SSW 6.6 mph -10.6 kmh - - 2.3 mph 3.7 kmh
Wind Gusts 12.3 mph19.8 kmh 15.4 mph24.8 kmh - -
Humidity 98% 98% 88% 97%
Pressure 29.83 in1010.2 mb 29.98 in1015.2 mb 29.83 in1010.2 mb -
Precipitation - 0.23 in5.8 mm - -
Hour Temp Dew Point Humidity Winds Wind Gusts Pressure Precip Precip Rate Daily Precip Total
06:20 PM 51.3°F10.7°C 50.7°F10.4°C 98% 6.0 mph SSW9.7 kmh SSW 12.3 mph19.8 kmh 29.83 in1010.2 mb 0.04 in1.0 mm 0.00 in0.0 mm 0.23 in5.8 mm
06:15 PM 51.3°F10.7°C 50.7°F10.4°C 98% 5.2 mph S8.4 kmh S 12.3 mph19.8 kmh 29.83 in1010.2 mb 0.04 in1.0 mm 0.00 in0.0 mm 0.23 in5.8 mm
06:10 PM 51.3°F10.7°C 50.7°F10.4°C 98% 4.7 mph S7.6 kmh S 12.8 mph20.6 kmh 29.85 in1010.8 mb 0.04 in1.0 mm 0.00 in0.0 mm 0.23 in5.8 mm
06:05 PM 51.3°F10.7°C 50.7°F10.4°C 98% 6.1 mph SSW9.8 kmh SSW 11.6 mph18.7 kmh 29.86 in1011.2 mb 0.04 in1.0 mm 0.00 in0.0 mm 0.23 in5.8 mm
06:00 PM 51.2°F10.7°C 50.7°F10.4°C 98% 4.7 mph SSW7.6 kmh SSW 13.4 mph21.6 kmh 29.86 in1011.2 mb 0.04 in1.0 mm 0.00 in0.0 mm 0.23 in5.8 mm
05:55 PM 51.2°F10.7°C 50.7°F10.4°C 98% 6.5 mph SSW10.5 kmh SSW 13.0 mph20.9 kmh 29.86 in1011.2 mb 0.04 in1.0 mm 0.48 in12.2 mm 0.23 in5.8 mm
05:50 PM 51.1°F10.6°C 50.5°F10.3°C 98% 4.1 mph SSW6.6 kmh SSW 8.7 mph14.0 kmh 29.86 in1011.2 mb 0.00 in0.0 mm 0.00 in0.0 mm 0.19 in4.8 mm
05:45 PM 51.1°F10.6°C 50.5°F10.3°C 98% 5.5 mph S8.9 kmh S 11.0 mph17.7 kmh 29.86 in1011.2 mb 0.00 in0.0 mm 0.00 in0.0 mm 0.19 in4.8 mm
05:40 PM 51.0°F10.6°C 50.4°F10.2°C 98% 6.6 mph SSW10.6 kmh SSW 11.2 mph18.0 kmh 29.86 in1011.2 mb 0.00 in0.0 mm 0.00 in0.0 mm 0.19 in4.8 mm
05:35 PM 50.9°F10.5°C 50.4°F10.2°C 98% 4.7 mph SSW7.6 kmh SSW 10.5 mph16.9 kmh 29.86 in1011.2 mb 0.07 in1.8 mm 0.00 in0.0 mm 0.19 in4.8 mm
05:30 PM 50.9°F10.5°C 50.4°F10.2°C 98% 5.8 mph SSW9.3 kmh SSW 12.3 mph19.8 kmh 29.86 in1011.2 mb 0.07 in1.8 mm 0.00 in0.0 mm 0.19 in4.8 mm
05:25 PM 50.9°F10.5°C 50.4°F10.2°C 98% 5.1 mph SW8.2 kmh SW 10.1 mph16.3 kmh 29.86 in1011.2 mb 0.07 in1.8 mm 0.00 in0.0 mm 0.19 in4.8 mm
05:20 PM 51.1°F10.6°C 50.5°F10.3°C 98% 5.3 mph SW8.5 kmh SW 11.0 mph17.7 kmh 29.86 in1011.2 mb 0.07 in1.8 mm 0.48 in12.2 mm 0.19 in4.8 mm
05:15 PM 51.1°F10.6°C 50.5°F10.3°C 98% 5.4 mph SW8.7 kmh SW 13.2 mph21.2 kmh 29.86 in1011.2 mb 0.03 in0.8 mm 0.00 in0.0 mm 0.15 in3.8 mm
05:10 PM 51.1°F10.6°C 50.5°F10.3°C 98% 5.9 mph SW9.5 kmh SW 12.3 mph19.8 kmh 29.88 in1011.9 mb 0.03 in0.8 mm 0.00 in0.0 mm 0.15 in3.8 mm
05:05 PM 51.1°F10.6°C 50.6°F10.3°C 98% 5.6 mph SSW9.0 kmh SSW 10.5 mph16.9 kmh 29.89 in1012.2 mb 0.03 in0.8 mm 0.00 in0.0 mm 0.15 in3.8 mm
05:00 PM 51.3°F10.7°C 50.7°F10.4°C 98% 5.7 mph SSW9.2 kmh SSW 11.9 mph19.2 kmh 29.89 in1012.2 mb 0.03 in0.8 mm 0.00 in0.0 mm 0.15 in3.8 mm
04:55 PM 51.3°F10.7°C 50.7°F10.4°C 98% 5.5 mph S8.9 kmh S 12.8 mph20.6 kmh 29.89 in1012.2 mb 0.03 in0.8 mm 0.00 in0.0 mm 0.15 in3.8 mm
04:50 PM 51.3°F10.7°C 50.7°F10.4°C 98% 6.5 mph SSW10.5 kmh SSW 13.2 mph21.2 kmh 29.89 in1012.2 mb 0.03 in0.8 mm 0.00 in0.0 mm 0.15 in3.8 mm
04:45 PM 51.3°F10.7°C 50.7°F10.4°C 98% 6.1 mph SW9.8 kmh SW 10.3 mph16.6 kmh 29.89 in1012.2 mb 0.03 in0.8 mm 0.36 in9.1 mm 0.15 in3.8 mm
04:40 PM 51.3°F10.7°C 50.8°F10.4°C 98% 3.8 mph SSW6.1 kmh SSW 12.3 mph19.8 kmh 29.89 in1012.2 mb 0.00 in0.0 mm 0.00 in0.0 mm 0.12 in3.0 mm
04:35 PM 51.4°F10.8°C 50.8°F10.4°C 98% 4.6 mph S7.4 kmh S 10.3 mph16.6 kmh 29.89 in1012.2 mb 0.08 in2.0 mm 0.48 in12.2 mm 0.12 in3.0 mm
04:30 PM 51.5°F10.8°C 50.7°F10.4°C 97% 4.7 mph S7.6 kmh S 7.8 mph12.6 kmh 29.89 in1012.2 mb 0.04 in1.0 mm 0.00 in0.0 mm 0.08 in2.0 mm
04:25 PM 51.6°F10.9°C 50.8°F10.4°C 97% 4.2 mph S6.8 kmh S 11.4 mph18.3 kmh 29.89 in1012.2 mb 0.04 in1.0 mm 0.00 in0.0 mm 0.08 in2.0 mm
04:20 PM 51.6°F10.9°C 50.7°F10.4°C 97% 6.0 mph S9.7 kmh S 11.9 mph19.2 kmh 29.89 in1012.2 mb 0.04 in1.0 mm 0.48 in12.2 mm 0.08 in2.0 mm
04:15 PM 51.7°F10.9°C 50.6°F10.3°C 96% 5.6 mph SSW9.0 kmh SSW 11.0 mph17.7 kmh 29.89 in1012.2 mb 0.00 in0.0 mm 0.00 in0.0 mm 0.04 in1.0 mm
04:10 PM 51.8°F11.0°C 50.7°F10.4°C 96% 5.3 mph S8.5 kmh S 11.9 mph19.2 kmh 29.89 in1012.2 mb 0.00 in0.0 mm 0.00 in0.0 mm 0.04 in1.0 mm
04:05 PM 51.9°F11.1°C 50.5°F10.3°C 95% 4.5 mph S7.2 kmh S 8.7 mph14.0 kmh 29.89 in1012.2 mb 0.00 in0.0 mm 0.00 in0.0 mm 0.04 in1.0 mm
04:00 PM 52.0°F11.1°C 50.6°F10.3°C 95% 4.9 mph S7.9 kmh S 10.5 mph16.9 kmh 29.89 in1012.2 mb 0.00 in0.0 mm 0.00 in0.0 mm 0.04 in1.0 mm
03:55 PM 52.0°F11.1°C 50.6°F10.3°C 95% 4.7 mph S7.6 kmh S 12.5 mph20.1 kmh 29.89 in1012.2 mb 0.00 in0.0 mm 0.00 in0.0 mm 0.04 in1.0 mm
03:50 PM 52.0°F11.1°C 50.6°F10.3°C 95% 5.0 mph SSW8.0 kmh SSW 11.6 mph18.7 kmh 29.89 in1012.2 mb 0.00 in0.0 mm 0.00 in0.0 mm 0.04 in1.0 mm
03:45 PM 52.0°F11.1°C 50.6°F10.3°C 95% 6.4 mph SSW10.3 kmh SSW 15.4 mph24.8 kmh 29.89 in1012.2 mb 0.00 in0.0 mm 0.00 in0.0 mm 0.04 in1.0 mm
03:40 PM 52.0°F11.1°C 50.3°F10.2°C 94% 3.5 mph S5.6 kmh S 6.0 mph9.7 kmh 29.89 in1012.2 mb 0.00 in0.0 mm 0.00 in0.0 mm 0.04 in1.0 mm
03:35 PM 52.0°F11.1°C 50.3°F10.2°C 94% 3.8 mph SW6.1 kmh SW 6.9 mph11.1 kmh 29.89 in1012.2 mb 0.00 in0.0 mm 0.00 in0.0 mm 0.04 in1.0 mm
03:30 PM 52.0°F11.1°C 50.3°F10.2°C 94% 4.6 mph S7.4 kmh S 13.6 mph21.9 kmh 29.89 in1012.2 mb 0.00 in0.0 mm 0.00 in0.0 mm 0.04 in1.0 mm
03:25 PM 52.1°F11.2°C 50.4°F10.2°C 94% 4.8 mph SW7.7 kmh SW 10.1 mph16.3 kmh 29.89 in1012.2 mb 0.00 in0.0 mm 0.00 in0.0 mm 0.04 in1.0 mm
03:20 PM 52.2°F11.2°C 50.5°F10.3°C 94% 3.5 mph S5.6 kmh S 8.5 mph13.7 kmh 29.89 in1012.2 mb 0.00 in0.0 mm 0.00 in0.0 mm 0.04 in1.0 mm
03:15 PM 52.2°F11.2°C 50.5°F10.3°C 94% 4.6 mph S7.4 kmh S 13.6 mph21.9 kmh 29.89 in1012.2 mb 0.00 in0.0 mm 0.00 in0.0 mm 0.04 in1.0 mm
03:10 PM 52.2°F11.2°C 50.5°F10.3°C 94% 3.7 mph S6.0 kmh S 8.3 mph13.4 kmh 29.89 in1012.2 mb 0.00 in0.0 mm 0.00 in0.0 mm 0.04 in1.0 mm
03:05 PM 52.2°F11.2°C 50.5°F10.3°C 94% 3.1 mph SSW5.0 kmh SSW 9.2 mph14.8 kmh 29.89 in1012.2 mb 0.00 in0.0 mm 0.00 in0.0 mm 0.04 in1.0 mm
03:00 PM 52.2°F11.2°C 50.5°F10.3°C 94% 5.0 mph SW8.0 kmh SW 8.1 mph13.0 kmh 29.89 in1012.2 mb 0.00 in0.0 mm 0.00 in0.0 mm 0.04 in1.0 mm
02:55 PM 52.2°F11.2°C 50.5°F10.3°C 94% 3.8 mph SSW6.1 kmh SSW 11.0 mph17.7 kmh 29.91 in1012.9 mb 0.00 in0.0 mm 0.00 in0.0 mm 0.04 in1.0 mm
02:50 PM 52.2°F11.2°C 50.0°F10.0°C 92% 3.7 mph SSW6.0 kmh SSW 10.7 mph17.2 kmh 29.92 in1013.2 mb 0.00 in0.0 mm 0.00 in0.0 mm 0.04 in1.0 mm
02:45 PM 52.3°F11.3°C 50.1°F10.1°C 92% 4.4 mph SSW7.1 kmh SSW 9.8 mph15.8 kmh 29.92 in1013.2 mb 0.00 in0.0 mm 0.00 in0.0 mm 0.04 in1.0 mm
02:40 PM 52.5°F11.4°C 50.3°F10.2°C 92% 4.2 mph SSW6.8 kmh SSW 9.8 mph15.8 kmh 29.92 in1013.2 mb 0.00 in0.0 mm 0.00 in0.0 mm 0.04 in1.0 mm
02:35 PM 52.7°F11.5°C 50.2°F10.1°C 91% 4.5 mph SSW7.2 kmh SSW 7.8 mph12.6 kmh 29.92 in1013.2 mb 0.00 in0.0 mm 0.00 in0.0 mm 0.04 in1.0 mm
02:30 PM 52.8°F11.6°C 50.1°F10.1°C 90% 3.4 mph SSW5.5 kmh SSW 8.7 mph14.0 kmh 29.92 in1013.2 mb 0.00 in0.0 mm 0.00 in0.0 mm 0.04 in1.0 mm
02:25 PM 53.1°F11.7°C 50.2°F10.1°C 90% 4.5 mph S7.2 kmh S 8.5 mph13.7 kmh 29.92 in1013.2 mb 0.00 in0.0 mm 0.00 in0.0 mm 0.04 in1.0 mm
02:20 PM 53.6°F12.0°C 50.3°F10.2°C 89% 5.3 mph SW8.5 kmh SW 12.3 mph19.8 kmh 29.92 in1013.2 mb 0.00 in0.0 mm 0.00 in0.0 mm 0.04 in1.0 mm
02:15 PM 54.0°F12.2°C 50.5°F10.3°C 88% 6.0 mph SW9.7 kmh SW 12.3 mph19.8 kmh 29.92 in1013.2 mb 0.00 in0.0 mm 0.00 in0.0 mm 0.04 in1.0 mm
02:10 PM 54.1°F12.3°C 50.7°F10.4°C 88% 5.8 mph SW9.3 kmh SW 13.4 mph21.6 kmh 29.93 in1013.5 mb 0.00 in0.0 mm 0.00 in0.0 mm 0.04 in1.0 mm
02:05 PM 54.2°F12.3°C 51.0°F10.6°C 89% 4.4 mph SSW7.1 kmh SSW 8.7 mph14.0 kmh 29.95 in1014.2 mb 0.00 in0.0 mm 0.00 in0.0 mm 0.04 in1.0 mm
02:00 PM 54.1°F12.3°C 50.9°F10.5°C 89% 4.2 mph SSW6.8 kmh SSW 11.4 mph18.3 kmh 29.95 in1014.2 mb 0.00 in0.0 mm 0.00 in0.0 mm 0.04 in1.0 mm
01:55 PM 54.1°F12.3°C 51.0°F10.6°C 90% 3.9 mph SSW6.3 kmh SSW 9.4 mph15.1 kmh 29.93 in1013.5 mb 0.00 in0.0 mm 0.00 in0.0 mm 0.04 in1.0 mm
01:50 PM 54.0°F12.2°C 51.0°F10.6°C 89% 4.6 mph S7.4 kmh S 11.4 mph18.3 kmh 29.92 in1013.2 mb 0.00 in0.0 mm 0.00 in0.0 mm 0.04 in1.0 mm
01:45 PM 54.0°F12.2°C 51.1°F10.6°C 90% 4.3 mph SW6.9 kmh SW 7.6 mph12.2 kmh 29.92 in1013.2 mb 0.00 in0.0 mm 0.00 in0.0 mm 0.04 in1.0 mm
01:40 PM 53.9°F12.2°C 51.1°F10.6°C 90% 4.7 mph SSW7.6 kmh SSW 10.5 mph16.9 kmh 29.93 in1013.5 mb 0.00 in0.0 mm 0.00 in0.0 mm 0.04 in1.0 mm
01:35 PM 53.8°F12.1°C 51.4°F10.8°C 92% 3.2 mph SSW5.1 kmh SSW 8.7 mph14.0 kmh 29.95 in1014.2 mb 0.00 in0.0 mm 0.00 in0.0 mm 0.04 in1.0 mm
01:30 PM 53.3°F11.8°C 51.0°F10.6°C 92% 4.7 mph SW7.6 kmh SW 12.3 mph19.8 kmh 29.95 in1014.2 mb 0.00 in0.0 mm 0.00 in0.0 mm 0.04 in1.0 mm
01:25 PM 53.1°F11.7°C 50.9°F10.5°C 92% 4.0 mph SSW6.4 kmh SSW 8.5 mph13.7 kmh 29.95 in1014.2 mb 0.00 in0.0 mm 0.00 in0.0 mm 0.04 in1.0 mm
01:20 PM 53.0°F11.7°C 51.2°F10.7°C 94% 4.1 mph S6.6 kmh S 7.4 mph11.9 kmh 29.95 in1014.2 mb 0.00 in0.0 mm 0.00 in0.0 mm 0.04 in1.0 mm
01:15 PM 52.8°F11.6°C 51.1°F10.6°C 94% 5.2 mph SSW8.4 kmh SSW 12.3 mph19.8 kmh 29.95 in1014.2 mb 0.00 in0.0 mm 0.00 in0.0 mm 0.04 in1.0 mm
01:10 PM 52.6°F11.4°C 50.9°F10.5°C 94% 5.2 mph S8.4 kmh S 9.4 mph15.1 kmh 29.96 in1014.6 mb 0.00 in0.0 mm 0.00 in0.0 mm 0.04 in1.0 mm
01:05 PM 52.5°F11.4°C 50.8°F10.4°C 94% 4.4 mph SSW7.1 kmh SSW 9.4 mph15.1 kmh 29.98 in1015.2 mb 0.00 in0.0 mm 0.00 in0.0 mm 0.04 in1.0 mm
01:00 PM 52.6°F11.4°C 51.0°F10.6°C 94% 6.2 mph S10.0 kmh S 10.5 mph16.9 kmh 29.98 in1015.2 mb 0.00 in0.0 mm 0.00 in0.0 mm 0.04 in1.0 mm
12:55 PM 52.8°F11.6°C 51.3°F10.7°C 95% 3.9 mph S6.3 kmh S 10.3 mph16.6 kmh 29.96 in1014.6 mb 0.00 in0.0 mm 0.00 in0.0 mm 0.04 in1.0 mm
12:50 PM 53.0°F11.7°C 51.7°F10.9°C 96% 4.8 mph S7.7 kmh S 12.5 mph20.1 kmh 29.95 in1014.2 mb 0.00 in0.0 mm 0.00 in0.0 mm 0.04 in1.0 mm
12:45 PM 53.2°F11.8°C 52.2°F11.2°C 96% 3.9 mph S6.3 kmh S 8.1 mph13.0 kmh 29.95 in1014.2 mb 0.00 in0.0 mm 0.00 in0.0 mm 0.04 in1.0 mm
12:40 PM 53.0°F11.7°C 52.4°F11.3°C 98% 4.2 mph SSW6.8 kmh SSW 13.4 mph21.6 kmh 29.93 in1013.5 mb 0.00 in0.0 mm 0.00 in0.0 mm 0.04 in1.0 mm
12:35 PM 52.3°F11.3°C 51.8°F11.0°C 98% 4.0 mph SSW6.4 kmh SSW 6.9 mph11.1 kmh 29.92 in1013.2 mb 0.00 in0.0 mm 0.00 in0.0 mm 0.04 in1.0 mm
12:30 PM 51.9°F11.1°C 51.4°F10.8°C 98% 3.7 mph S6.0 kmh S 7.6 mph12.2 kmh 29.92 in1013.2 mb 0.00 in0.0 mm 0.00 in0.0 mm 0.04 in1.0 mm
12:25 PM 51.6°F10.9°C 51.1°F10.6°C 98% 4.7 mph S7.6 kmh S 9.4 mph15.1 kmh 29.93 in1013.5 mb 0.00 in0.0 mm 0.00 in0.0 mm 0.04 in1.0 mm
12:20 PM 51.6°F10.9°C 51.1°F10.6°C 98% 3.3 mph S5.3 kmh S 5.8 mph9.3 kmh 29.95 in1014.2 mb 0.00 in0.0 mm 0.00 in0.0 mm 0.04 in1.0 mm
12:15 PM 51.5°F10.8°C 51.0°F10.6°C 98% 4.9 mph SW7.9 kmh SW 12.8 mph20.6 kmh 29.95 in1014.2 mb 0.00 in0.0 mm 0.00 in0.0 mm 0.04 in1.0 mm
12:10 PM 51.6°F10.9°C 51.1°F10.6°C 98% 3.2 mph S5.1 kmh S 8.1 mph13.0 kmh 29.95 in1014.2 mb 0.00 in0.0 mm 0.00 in0.0 mm 0.04 in1.0 mm
12:05 PM 51.5°F10.8°C 50.9°F10.5°C 98% 4.4 mph S7.1 kmh S 8.3 mph13.4 kmh 29.95 in1014.2 mb 0.00 in0.0 mm 0.00 in0.0 mm 0.04 in1.0 mm
12:00 PM 51.4°F10.8°C 50.9°F10.5°C 98% 4.2 mph SSW6.8 kmh SSW 9.4 mph15.1 kmh 29.95 in1014.2 mb 0.00 in0.0 mm 0.00 in0.0 mm 0.04 in1.0 mm
11:55 AM 51.5°F10.8°C 50.9°F10.5°C 98% 3.9 mph SW6.3 kmh SW 10.1 mph16.3 kmh 29.95 in1014.2 mb 0.00 in0.0 mm 0.00 in0.0 mm 0.04 in1.0 mm
11:50 AM 51.6°F10.9°C 51.0°F10.6°C 98% 3.7 mph SSW6.0 kmh SSW 8.1 mph13.0 kmh 29.95 in1014.2 mb 0.00 in0.0 mm 0.00 in0.0 mm 0.04 in1.0 mm
11:45 AM 51.5°F10.8°C 50.9°F10.5°C 98% 4.0 mph SSW6.4 kmh SSW 8.3 mph13.4 kmh 29.95 in1014.2 mb 0.00 in0.0 mm 0.00 in0.0 mm 0.04 in1.0 mm
11:40 AM 51.4°F10.8°C 50.9°F10.5°C 98% 4.0 mph SSW6.4 kmh SSW 10.3 mph16.6 kmh 29.95 in1014.2 mb 0.00 in0.0 mm 0.00 in0.0 mm 0.04 in1.0 mm
11:35 AM 51.4°F10.8°C 50.9°F10.5°C 98% 4.4 mph S7.1 kmh S 7.4 mph11.9 kmh 29.95 in1014.2 mb 0.00 in0.0 mm 0.00 in0.0 mm 0.04 in1.0 mm
11:30 AM 51.4°F10.8°C 50.9°F10.5°C 98% 3.7 mph SSW6.0 kmh SSW 8.1 mph13.0 kmh 29.95 in1014.2 mb 0.00 in0.0 mm 0.00 in0.0 mm 0.04 in1.0 mm
11:25 AM 51.4°F10.8°C 50.9°F10.5°C 98% 4.7 mph SSW7.6 kmh SSW 8.1 mph13.0 kmh 29.95 in1014.2 mb 0.00 in0.0 mm 0.00 in0.0 mm 0.04 in1.0 mm
11:20 AM 51.4°F10.8°C 50.8°F10.4°C 98% 3.8 mph SW6.1 kmh SW 8.7 mph14.0 kmh 29.95 in1014.2 mb 0.00 in0.0 mm 0.00 in0.0 mm 0.04 in1.0 mm
11:15 AM 51.3°F10.7°C 50.7°F10.4°C 98% 4.4 mph S7.1 kmh S 10.7 mph17.2 kmh 29.95 in1014.2 mb 0.00 in0.0 mm 0.00 in0.0 mm 0.04 in1.0 mm
11:10 AM 51.3°F10.7°C 50.7°F10.4°C 98% 4.3 mph SSW6.9 kmh SSW 13.9 mph22.4 kmh 29.95 in1014.2 mb 0.00 in0.0 mm 0.00 in0.0 mm 0.04 in1.0 mm
11:05 AM 51.4°F10.8°C 50.9°F10.5°C 98% 2.7 mph S4.3 kmh S 10.7 mph17.2 kmh 29.95 in1014.2 mb 0.00 in0.0 mm 0.00 in0.0 mm 0.04 in1.0 mm
11:00 AM 51.2°F10.7°C 50.6°F10.3°C 98% 3.2 mph SSW5.1 kmh SSW 8.1 mph13.0 kmh 29.95 in1014.2 mb 0.00 in0.0 mm 0.00 in0.0 mm 0.04 in1.0 mm
10:55 AM 50.9°F10.5°C 50.4°F10.2°C 98% 3.9 mph SSW6.3 kmh SSW 6.7 mph10.8 kmh 29.95 in1014.2 mb 0.00 in0.0 mm 0.00 in0.0 mm 0.04 in1.0 mm
10:50 AM 50.6°F10.3°C 50.1°F10.1°C 98% 4.3 mph SSW6.9 kmh SSW 8.7 mph14.0 kmh 29.95 in1014.2 mb 0.00 in0.0 mm 0.00 in0.0 mm 0.04 in1.0 mm
10:45 AM 50.3°F10.2°C 49.8°F9.9°C 98% 3.4 mph SSW5.5 kmh SSW 7.8 mph12.6 kmh 29.95 in1014.2 mb 0.00 in0.0 mm 0.00 in0.0 mm 0.04 in1.0 mm
10:40 AM 50.1°F10.1°C 49.5°F9.7°C 98% 4.5 mph S7.2 kmh S 8.3 mph13.4 kmh 29.95 in1014.2 mb 0.00 in0.0 mm 0.00 in0.0 mm 0.04 in1.0 mm
10:35 AM 49.9°F9.9°C 49.3°F9.6°C 98% 4.5 mph SSW7.2 kmh SSW 9.4 mph15.1 kmh 29.95 in1014.2 mb 0.00 in0.0 mm 0.00 in0.0 mm 0.04 in1.0 mm
10:30 AM 49.7°F9.8°C 49.2°F9.6°C 98% 3.5 mph S5.6 kmh S 6.9 mph11.1 kmh 29.95 in1014.2 mb 0.00 in0.0 mm 0.00 in0.0 mm 0.04 in1.0 mm
10:25 AM 49.6°F9.8°C 49.1°F9.5°C 98% 2.2 mph S3.5 kmh S 12.3 mph19.8 kmh 29.95 in1014.2 mb 0.00 in0.0 mm 0.00 in0.0 mm 0.04 in1.0 mm
10:20 AM 49.4°F9.7°C 48.9°F9.4°C 98% 2.4 mph S3.9 kmh S 4.3 mph6.9 kmh 29.95 in1014.2 mb 0.00 in0.0 mm 0.00 in0.0 mm 0.04 in1.0 mm
10:15 AM 49.3°F9.6°C 48.7°F9.3°C 98% 3.3 mph S5.3 kmh S 6.0 mph9.7 kmh 29.95 in1014.2 mb 0.00 in0.0 mm 0.00 in0.0 mm 0.04 in1.0 mm
10:10 AM 49.2°F9.6°C 48.6°F9.2°C 98% 3.4 mph S5.5 kmh S 6.9 mph11.1 kmh 29.95 in1014.2 mb 0.00 in0.0 mm 0.00 in0.0 mm 0.04 in1.0 mm
10:05 AM 49.0°F9.4°C 48.5°F9.2°C 98% 3.5 mph S5.6 kmh S 6.0 mph9.7 kmh 29.95 in1014.2 mb 0.00 in0.0 mm 0.00 in0.0 mm 0.04 in1.0 mm
10:00 AM 48.9°F9.4°C 48.3°F9.1°C 98% 1.9 mph SSW3.1 kmh SSW 8.7 mph14.0 kmh 29.95 in1014.2 mb 0.00 in0.0 mm 0.00 in0.0 mm 0.04 in1.0 mm
09:55 AM 48.6°F9.2°C 48.0°F8.9°C 98% 0.4 mph SSW0.6 kmh SSW 2.2 mph3.5 kmh 29.95 in1014.2 mb 0.00 in0.0 mm 0.00 in0.0 mm 0.04 in1.0 mm
09:50 AM 48.3°F9.1°C 47.8°F8.8°C 98% 1.3 mph SSE2.1 kmh SSE 3.8 mph6.1 kmh 29.95 in1014.2 mb 0.00 in0.0 mm 0.00 in0.0 mm 0.04 in1.0 mm
09:45 AM 48.1°F8.9°C 47.6°F8.7°C 98% 1.6 mph SSE2.6 kmh SSE 3.8 mph6.1 kmh 29.95 in1014.2 mb 0.00 in0.0 mm 0.00 in0.0 mm 0.04 in1.0 mm
09:40 AM 47.8°F8.8°C 47.3°F8.5°C 98% 1.0 mph SSE1.6 kmh SSE 4.5 mph7.2 kmh 29.95 in1014.2 mb 0.00 in0.0 mm 0.00 in0.0 mm 0.04 in1.0 mm
09:35 AM 47.6°F8.7°C 47.0°F8.3°C 98% 0.4 mph SE0.6 kmh SE 4.5 mph7.2 kmh 29.95 in1014.2 mb 0.04 in1.0 mm 0.00 in0.0 mm 0.04 in1.0 mm
09:30 AM 47.4°F8.6°C 46.8°F8.2°C 98% 0.5 mph SSE0.8 kmh SSE 2.5 mph4.0 kmh 29.95 in1014.2 mb 0.04 in1.0 mm 0.00 in0.0 mm 0.04 in1.0 mm
09:25 AM 47.3°F8.5°C 46.8°F8.2°C 98% 0.3 mph SE0.5 kmh SE 2.7 mph4.3 kmh 29.95 in1014.2 mb 0.04 in1.0 mm 0.00 in0.0 mm 0.04 in1.0 mm
09:20 AM 47.2°F8.4°C 46.7°F8.2°C 98% 0.1 mph SE0.2 kmh SE 1.1 mph1.8 kmh 29.95 in1014.2 mb 0.04 in1.0 mm 0.00 in0.0 mm 0.04 in1.0 mm
09:15 AM 47.1°F8.4°C 46.6°F8.1°C 98% 0.6 mph SE1.0 kmh SE 2.9 mph4.7 kmh 29.95 in1014.2 mb 0.04 in1.0 mm 0.00 in0.0 mm 0.04 in1.0 mm
09:10 AM 47.1°F8.4°C 46.6°F8.1°C 98% 1.0 mph ESE1.6 kmh ESE 2.0 mph3.2 kmh 29.95 in1014.2 mb 0.04 in1.0 mm 0.00 in0.0 mm 0.04 in1.0 mm
09:05 AM 47.1°F8.4°C 46.6°F8.1°C 98% 0.3 mph ESE0.5 kmh ESE 3.1 mph5.0 kmh 29.95 in1014.2 mb 0.04 in1.0 mm 0.00 in0.0 mm 0.04 in1.0 mm
09:00 AM 47.0°F8.3°C 46.5°F8.1°C 98% 0.6 mph SSE1.0 kmh SSE 3.8 mph6.1 kmh 29.95 in1014.2 mb 0.04 in1.0 mm 0.04 in1.0 mm 0.04 in1.0 mm
08:55 AM 46.9°F8.3°C 46.4°F8.0°C 98% 0.5 mph E0.8 kmh E 2.5 mph4.0 kmh 29.95 in1014.2 mb 0.00 in0.0 mm 0.00 in0.0 mm 0.00 in0.0 mm
08:51 AM 46.9°F8.3°C 46.4°F8.0°C 98% 0.9 mph SE1.4 kmh SE 1.8 mph2.9 kmh 29.95 in1014.2 mb 0.00 in0.0 mm 0.00 in0.0 mm 0.00 in0.0 mm
08:50 AM 46.9°F8.3°C 46.4°F8.0°C 98% 0.3 mph ESE0.5 kmh ESE 2.0 mph3.2 kmh 29.95 in1014.2 mb 0.00 in0.0 mm 0.00 in0.0 mm 0.00 in0.0 mm
08:45 AM 46.9°F8.3°C 46.4°F8.0°C 98% 0.6 mph SE1.0 kmh SE 2.9 mph4.7 kmh 29.95 in1014.2 mb 0.00 in0.0 mm 0.00 in0.0 mm 0.00 in0.0 mm
08:40 AM 46.8°F8.2°C 46.3°F7.9°C 98% 0.7 mph SSE1.1 kmh SSE 3.1 mph5.0 kmh 29.95 in1014.2 mb 0.00 in0.0 mm 0.00 in0.0 mm 0.00 in0.0 mm
08:35 AM 46.8°F8.2°C 46.2°F7.9°C 98% Calm Calm 1.1 mph1.8 kmh 29.95 in1014.2 mb 0.00 in0.0 mm 0.00 in0.0 mm 0.00 in0.0 mm
08:30 AM 46.8°F8.2°C 46.2°F7.9°C 98% 0.9 mph SE1.4 kmh SE 2.7 mph4.3 kmh 29.95 in1014.2 mb 0.00 in0.0 mm 0.00 in0.0 mm 0.00 in0.0 mm
08:25 AM 46.8°F8.2°C 46.2°F7.9°C 98% Calm Calm -- 29.95 in1014.2 mb 0.00 in0.0 mm 0.00 in0.0 mm 0.00 in0.0 mm
08:20 AM 46.7°F8.2°C 46.1°F7.8°C 98% 0.7 mph SE1.1 kmh SE 2.5 mph4.0 kmh 29.95 in1014.2 mb 0.00 in0.0 mm 0.00 in0.0 mm 0.00 in0.0 mm
08:15 AM 46.6°F8.1°C 46.0°F7.8°C 98% 0.1 mph SE0.2 kmh SE 2.5 mph4.0 kmh 29.95 in1014.2 mb 0.00 in0.0 mm 0.00 in0.0 mm 0.00 in0.0 mm
08:10 AM 46.6°F8.1°C 46.0°F7.8°C 98% 0.2 mph SE0.3 kmh SE 2.0 mph3.2 kmh 29.95 in1014.2 mb 0.00 in0.0 mm 0.00 in0.0 mm 0.00 in0.0 mm
08:05 AM 46.5°F8.1°C 46.0°F7.8°C 98% 0.3 mph SE0.5 kmh SE 2.0 mph3.2 kmh 29.95 in1014.2 mb 0.00 in0.0 mm 0.00 in0.0 mm 0.00 in0.0 mm
08:00 AM 46.4°F8.0°C 45.9°F7.7°C 98% 0.7 mph S1.1 kmh S 3.1 mph5.0 kmh 29.95 in1014.2 mb 0.00 in0.0 mm 0.00 in0.0 mm 0.00 in0.0 mm
07:55 AM 46.2°F7.9°C 45.7°F7.6°C 98% 0.8 mph S1.3 kmh S 3.8 mph6.1 kmh 29.95 in1014.2 mb 0.00 in0.0 mm 0.00 in0.0 mm 0.00 in0.0 mm
07:50 AM 46.0°F7.8°C 45.4°F7.4°C 98% 2.3 mph S3.7 kmh S 4.0 mph6.4 kmh 29.95 in1014.2 mb 0.00 in0.0 mm 0.00 in0.0 mm 0.00 in0.0 mm
07:45 AM 45.6°F7.6°C 45.0°F7.2°C 98% 1.6 mph S2.6 kmh S 3.8 mph6.1 kmh 29.95 in1014.2 mb 0.00 in0.0 mm 0.00 in0.0 mm 0.00 in0.0 mm
07:40 AM 45.1°F7.3°C 44.5°F6.9°C 98% 1.2 mph SSE1.9 kmh SSE 4.5 mph7.2 kmh 29.95 in1014.2 mb 0.00 in0.0 mm 0.00 in0.0 mm 0.00 in0.0 mm
07:35 AM 44.6°F7.0°C 44.1°F6.7°C 98% 0.6 mph SE1.0 kmh SE 2.7 mph4.3 kmh 29.95 in1014.2 mb 0.00 in0.0 mm 0.00 in0.0 mm 0.00 in0.0 mm
07:30 AM 44.3°F6.8°C 43.7°F6.5°C 98% 0.3 mph S0.5 kmh S 2.7 mph4.3 kmh 29.95 in1014.2 mb 0.00 in0.0 mm 0.00 in0.0 mm 0.00 in0.0 mm
07:25 AM 44.2°F6.8°C 43.7°F6.5°C 98% 0.6 mph SE1.0 kmh SE 2.0 mph3.2 kmh 29.95 in1014.2 mb 0.00 in0.0 mm 0.00 in0.0 mm 0.00 in0.0 mm
07:20 AM 44.2°F6.8°C 43.6°F6.4°C 98% 1.6 mph SE2.6 kmh SE 3.8 mph6.1 kmh 29.95 in1014.2 mb 0.00 in0.0 mm 0.00 in0.0 mm 0.00 in0.0 mm
07:15 AM 44.1°F6.7°C 43.5°F6.4°C 98% 1.0 mph SE1.6 kmh SE 2.7 mph4.3 kmh 29.95 in1014.2 mb 0.00 in0.0 mm 0.00 in0.0 mm 0.00 in0.0 mm
07:10 AM 44.1°F6.7°C 43.5°F6.4°C 98% 1.4 mph SE2.3 kmh SE 2.7 mph4.3 kmh 29.95 in1014.2 mb 0.00 in0.0 mm 0.00 in0.0 mm 0.00 in0.0 mm
07:05 AM 43.9°F6.6°C 43.4°F6.3°C 98% 2.3 mph SE3.7 kmh SE 3.4 mph5.5 kmh 29.95 in1014.2 mb 0.00 in0.0 mm 0.00 in0.0 mm 0.00 in0.0 mm
07:00 AM 43.9°F6.6°C 43.4°F6.3°C 98% 2.1 mph SE3.4 kmh SE 2.9 mph4.7 kmh 29.95 in1014.2 mb 0.00 in0.0 mm 0.00 in0.0 mm 0.00 in0.0 mm
06:55 AM 43.9°F6.6°C 43.4°F6.3°C 98% 1.5 mph SE2.4 kmh SE 2.7 mph4.3 kmh 29.95 in1014.2 mb 0.00 in0.0 mm 0.00 in0.0 mm 0.00 in0.0 mm
06:50 AM 43.9°F6.6°C 43.4°F6.3°C 98% 1.8 mph SE2.9 kmh SE 2.9 mph4.7 kmh 29.95 in1014.2 mb 0.00 in0.0 mm 0.00 in0.0 mm 0.00 in0.0 mm
06:45 AM 43.8°F6.6°C 43.3°F6.3°C 98% 1.9 mph SE3.1 kmh SE 2.7 mph4.3 kmh 29.95 in1014.2 mb 0.00 in0.0 mm 0.00 in0.0 mm 0.00 in0.0 mm
06:40 AM 43.7°F6.5°C 43.2°F6.2°C 98% 1.9 mph SE3.1 kmh SE 2.5 mph4.0 kmh 29.95 in1014.2 mb 0.00 in0.0 mm 0.00 in0.0 mm 0.00 in0.0 mm
06:35 AM -- -- - 1.6 mph ESE2.6 kmh ESE 1.6 mph2.6 kmh -- 0.00 in0.0 mm 0.00 in0.0 mm 0.00 in0.0 mm
06:30 AM 43.7°F6.5°C 43.2°F6.2°C 98% Calm Calm -- 29.95 in1014.2 mb 0.00 in0.0 mm 0.00 in0.0 mm 0.00 in0.0 mm
06:25 AM 43.7°F6.5°C 43.2°F6.2°C 98% Calm Calm -- 29.95 in1014.2 mb 0.00 in0.0 mm 0.00 in0.0 mm 0.00 in0.0 mm
06:20 AM 43.7°F6.5°C 43.2°F6.2°C 98% 0.1 mph ESE0.2 kmh ESE 0.9 mph1.4 kmh 29.95 in1014.2 mb 0.00 in0.0 mm 0.00 in0.0 mm 0.00 in0.0 mm
06:15 AM 43.7°F6.5°C 43.2°F6.2°C 98% 0.2 mph ESE0.3 kmh ESE 1.8 mph2.9 kmh 29.95 in1014.2 mb 0.00 in0.0 mm 0.00 in0.0 mm 0.00 in0.0 mm
06:10 AM 43.7°F6.5°C 43.2°F6.2°C 98% Calm Calm -- 29.94 in1013.9 mb 0.00 in0.0 mm 0.00 in0.0 mm 0.00 in0.0 mm
06:05 AM 43.7°F6.5°C 43.2°F6.2°C 98% Calm Calm -- 29.92 in1013.2 mb 0.00 in0.0 mm 0.00 in0.0 mm 0.00 in0.0 mm
06:00 AM 43.7°F6.5°C 43.2°F6.2°C 98% 0.8 mph ESE1.3 kmh ESE 2.0 mph3.2 kmh 29.92 in1013.2 mb 0.00 in0.0 mm 0.00 in0.0 mm 0.00 in0.0 mm
05:55 AM -- -- - 0.6 mph ESE1.0 kmh ESE 1.8 mph2.9 kmh -- 0.00 in0.0 mm 0.00 in0.0 mm 0.00 in0.0 mm
05:50 AM -- -- - Calm Calm -- -- 0.00 in0.0 mm 0.00 in0.0 mm 0.00 in0.0 mm
05:45 AM -- -- - Calm Calm -- -- 0.00 in0.0 mm 0.00 in0.0 mm 0.00 in0.0 mm
05:40 AM -- -- - Calm Calm -- -- 0.00 in0.0 mm 0.00 in0.0 mm 0.00 in0.0 mm
05:35 AM -- -- - Calm Calm -- -- 0.00 in0.0 mm 0.00 in0.0 mm 0.00 in0.0 mm
05:30 AM 44.4°F6.9°C 43.9°F6.6°C 98% Calm Calm -- 29.95 in1014.2 mb 0.00 in0.0 mm 0.00 in0.0 mm 0.00 in0.0 mm
05:25 AM 44.4°F6.9°C 43.8°F6.6°C 98% 0.4 mph SW0.6 kmh SW 2.9 mph4.7 kmh 29.94 in1013.9 mb 0.00 in0.0 mm 0.00 in0.0 mm 0.00 in0.0 mm
05:20 AM 44.2°F6.8°C 43.7°F6.5°C 98% 0.6 mph SW1.0 kmh SW 2.7 mph4.3 kmh 29.92 in1013.2 mb 0.00 in0.0 mm 0.00 in0.0 mm 0.00 in0.0 mm
05:15 AM 44.1°F6.7°C 43.6°F6.4°C 98% Calm Calm 0.4 mph0.6 kmh 29.92 in1013.2 mb 0.00 in0.0 mm 0.00 in0.0 mm 0.00 in0.0 mm
05:10 AM 44.0°F6.7°C 43.4°F6.3°C 98% 0.2 mph WSW0.3 kmh WSW 2.5 mph4.0 kmh 29.94 in1013.9 mb 0.00 in0.0 mm 0.00 in0.0 mm 0.00 in0.0 mm
05:05 AM 43.9°F6.6°C 43.4°F6.3°C 98% 0.2 mph WSW0.3 kmh WSW 1.8 mph2.9 kmh 29.95 in1014.2 mb 0.00 in0.0 mm 0.00 in0.0 mm 0.00 in0.0 mm
05:00 AM 43.9°F6.6°C 43.4°F6.3°C 98% Calm Calm 1.6 mph2.6 kmh 29.95 in1014.2 mb 0.00 in0.0 mm 0.00 in0.0 mm 0.00 in0.0 mm
04:55 AM 44.1°F6.7°C 43.5°F6.4°C 98% Calm Calm 0.2 mph0.3 kmh 29.94 in1013.9 mb 0.00 in0.0 mm 0.00 in0.0 mm 0.00 in0.0 mm
04:50 AM 44.3°F6.8°C 43.8°F6.6°C 98% 1.0 mph W1.6 kmh W 3.4 mph5.5 kmh 29.92 in1013.2 mb 0.00 in0.0 mm 0.00 in0.0 mm 0.00 in0.0 mm
04:45 AM 44.3°F6.8°C 43.7°F6.5°C 98% 0.1 mph W0.2 kmh W 2.7 mph4.3 kmh 29.92 in1013.2 mb 0.00 in0.0 mm 0.00 in0.0 mm 0.00 in0.0 mm
04:40 AM 44.2°F6.8°C 43.7°F6.5°C 98% 1.0 mph WSW1.6 kmh WSW 2.7 mph4.3 kmh 29.94 in1013.9 mb 0.00 in0.0 mm 0.00 in0.0 mm 0.00 in0.0 mm
04:35 AM 44.5°F6.9°C 43.9°F6.6°C 98% 1.0 mph WSW1.6 kmh WSW 3.4 mph5.5 kmh 29.95 in1014.2 mb 0.00 in0.0 mm 0.00 in0.0 mm 0.00 in0.0 mm
04:30 AM 44.6°F7.0°C 44.1°F6.7°C 98% 2.3 mph W3.7 kmh W 3.8 mph6.1 kmh 29.95 in1014.2 mb 0.00 in0.0 mm 0.00 in0.0 mm 0.00 in0.0 mm
04:25 AM 44.7°F7.1°C 44.2°F6.8°C 98% 2.4 mph W3.9 kmh W 4.5 mph7.2 kmh 29.94 in1013.9 mb 0.00 in0.0 mm 0.00 in0.0 mm 0.00 in0.0 mm
04:20 AM 44.9°F7.2°C 44.4°F6.9°C 98% 0.5 mph WSW0.8 kmh WSW 2.5 mph4.0 kmh 29.92 in1013.2 mb 0.00 in0.0 mm 0.00 in0.0 mm 0.00 in0.0 mm
04:15 AM 45.2°F7.3°C 44.7°F7.1°C 98% 1.2 mph W1.9 kmh W 3.6 mph5.8 kmh 29.92 in1013.2 mb 0.00 in0.0 mm 0.00 in0.0 mm 0.00 in0.0 mm
04:10 AM 45.3°F7.4°C 44.8°F7.1°C 98% 1.9 mph WSW3.1 kmh WSW 3.8 mph6.1 kmh 29.92 in1013.2 mb 0.00 in0.0 mm 0.00 in0.0 mm 0.00 in0.0 mm
04:05 AM 45.3°F7.4°C 44.8°F7.1°C 98% 2.4 mph WSW3.9 kmh WSW 3.8 mph6.1 kmh 29.92 in1013.2 mb 0.00 in0.0 mm 0.00 in0.0 mm 0.00 in0.0 mm
04:00 AM 45.1°F7.3°C 44.6°F7.0°C 98% 1.8 mph WSW2.9 kmh WSW 3.4 mph5.5 kmh 29.92 in1013.2 mb 0.00 in0.0 mm 0.00 in0.0 mm 0.00 in0.0 mm
03:55 AM 45.1°F7.3°C 44.6°F7.0°C 98% 1.3 mph WSW2.1 kmh WSW 3.4 mph5.5 kmh 29.94 in1013.9 mb 0.00 in0.0 mm 0.00 in0.0 mm 0.00 in0.0 mm
03:50 AM 44.9°F7.2°C 44.3°F6.8°C 98% 0.6 mph SW1.0 kmh SW 3.1 mph5.0 kmh 29.95 in1014.2 mb 0.00 in0.0 mm 0.00 in0.0 mm 0.00 in0.0 mm
03:45 AM 44.7°F7.1°C 44.1°F6.7°C 98% 0.2 mph SW0.3 kmh SW 2.7 mph4.3 kmh 29.95 in1014.2 mb 0.00 in0.0 mm 0.00 in0.0 mm 0.00 in0.0 mm
03:40 AM 44.4°F6.9°C 43.9°F6.6°C 98% 0.3 mph SSW0.5 kmh SSW 3.1 mph5.0 kmh 29.94 in1013.9 mb 0.00 in0.0 mm 0.00 in0.0 mm 0.00 in0.0 mm
03:35 AM 44.2°F6.8°C 43.7°F6.5°C 98% Calm Calm 1.3 mph2.1 kmh 29.92 in1013.2 mb 0.00 in0.0 mm 0.00 in0.0 mm 0.00 in0.0 mm
03:30 AM 44.1°F6.7°C 43.5°F6.4°C 98% Calm Calm -- 29.92 in1013.2 mb 0.00 in0.0 mm 0.00 in0.0 mm 0.00 in0.0 mm
03:25 AM 44.1°F6.7°C 43.5°F6.4°C 98% Calm Calm -- 29.95 in1014.2 mb 0.00 in0.0 mm 0.00 in0.0 mm 0.00 in0.0 mm
03:20 AM 44.1°F6.7°C 43.5°F6.4°C 98% Calm Calm -- 29.98 in1015.2 mb 0.00 in0.0 mm 0.00 in0.0 mm 0.00 in0.0 mm
03:15 AM 44.1°F6.7°C 43.5°F6.4°C 98% Calm Calm -- 29.98 in1015.2 mb 0.00 in0.0 mm 0.00 in0.0 mm 0.00 in0.0 mm
03:10 AM 44.1°F6.7°C 43.5°F6.4°C 98% Calm Calm -- 29.96 in1014.6 mb 0.00 in0.0 mm 0.00 in0.0 mm 0.00 in0.0 mm
03:05 AM 44.1°F6.7°C 43.6°F6.4°C 98% Calm Calm -- 29.95 in1014.2 mb 0.00 in0.0 mm 0.00 in0.0 mm 0.00 in0.0 mm
03:00 AM 44.3°F6.8°C 43.7°F6.5°C 98% Calm Calm -- 29.95 in1014.2 mb 0.00 in0.0 mm 0.00 in0.0 mm 0.00 in0.0 mm
02:55 AM 44.4°F6.9°C 43.9°F6.6°C 98% Calm Calm -- 29.95 in1014.2 mb 0.00 in0.0 mm 0.00 in0.0 mm 0.00 in0.0 mm
02:50 AM 44.4°F6.9°C 43.9°F6.6°C 98% Calm Calm -- 29.95 in1014.2 mb 0.00 in0.0 mm 0.00 in0.0 mm 0.00 in0.0 mm
02:45 AM 44.4°F6.9°C 43.9°F6.6°C 98% Calm Calm -- 29.95 in1014.2 mb 0.00 in0.0 mm 0.00 in0.0 mm 0.00 in0.0 mm
02:40 AM 44.6°F7.0°C 44.1°F6.7°C 98% Calm Calm -- 29.95 in1014.2 mb 0.00 in0.0 mm 0.00 in0.0 mm 0.00 in0.0 mm
02:35 AM 44.6°F7.0°C 44.1°F6.7°C 98% 0.4 mph ESE0.6 kmh ESE 1.8 mph2.9 kmh 29.95 in1014.2 mb 0.00 in0.0 mm 0.00 in0.0 mm 0.00 in0.0 mm
02:30 AM 44.6°F7.0°C 44.1°F6.7°C 98% 0.3 mph ESE0.5 kmh ESE 1.8 mph2.9 kmh 29.95 in1014.2 mb 0.00 in0.0 mm 0.00 in0.0 mm 0.00 in0.0 mm
02:25 AM 44.6°F7.0°C 44.1°F6.7°C 98% Calm Calm 0.2 mph0.3 kmh 29.95 in1014.2 mb 0.00 in0.0 mm 0.00 in0.0 mm 0.00 in0.0 mm
02:20 AM 44.6°F7.0°C 44.1°F6.7°C 98% Calm Calm -- 29.95 in1014.2 mb 0.00 in0.0 mm 0.00 in0.0 mm 0.00 in0.0 mm
02:15 AM 44.6°F7.0°C 44.1°F6.7°C 98% 0.1 mph SE0.2 kmh SE 1.3 mph2.1 kmh 29.95 in1014.2 mb 0.00 in0.0 mm 0.00 in0.0 mm 0.00 in0.0 mm
02:10 AM 44.5°F6.9°C 43.9°F6.6°C 98% Calm Calm 1.1 mph1.8 kmh 29.95 in1014.2 mb 0.00 in0.0 mm 0.00 in0.0 mm 0.00 in0.0 mm
02:05 AM 44.4°F6.9°C 43.9°F6.6°C 98% 0.1 mph SE0.2 kmh SE 1.8 mph2.9 kmh 29.95 in1014.2 mb 0.00 in0.0 mm 0.00 in0.0 mm 0.00 in0.0 mm
02:00 AM 44.4°F6.9°C 43.9°F6.6°C 98% Calm Calm -- 29.95 in1014.2 mb 0.00 in0.0 mm 0.00 in0.0 mm 0.00 in0.0 mm
01:55 AM 44.3°F6.8°C 43.8°F6.6°C 98% 0.3 mph SE0.5 kmh SE 1.8 mph2.9 kmh 29.95 in1014.2 mb 0.00 in0.0 mm 0.00 in0.0 mm 0.00 in0.0 mm
01:50 AM 44.1°F6.7°C 43.5°F6.4°C 98% Calm Calm -- 29.95 in1014.2 mb 0.00 in0.0 mm 0.00 in0.0 mm 0.00 in0.0 mm
01:45 AM 43.8°F6.6°C 43.3°F6.3°C 98% Calm Calm -- 29.95 in1014.2 mb 0.00 in0.0 mm 0.00 in0.0 mm 0.00 in0.0 mm
01:40 AM 43.7°F6.5°C 43.2°F6.2°C 98% 0.2 mph ESE0.3 kmh ESE 1.8 mph2.9 kmh 29.95 in1014.2 mb 0.00 in0.0 mm 0.00 in0.0 mm 0.00 in0.0 mm
01:35 AM 43.7°F6.5°C 43.2°F6.2°C 98% Calm Calm -- 29.95 in1014.2 mb 0.00 in0.0 mm 0.00 in0.0 mm 0.00 in0.0 mm
01:30 AM 43.6°F6.4°C 43.1°F6.2°C 98% Calm Calm -- 29.95 in1014.2 mb 0.00 in0.0 mm 0.00 in0.0 mm 0.00 in0.0 mm
01:25 AM 43.5°F6.4°C 43.0°F6.1°C 98% Calm Calm -- 29.94 in1013.9 mb 0.00 in0.0 mm 0.00 in0.0 mm 0.00 in0.0 mm
01:20 AM 43.3°F6.3°C 42.8°F6.0°C 98% Calm Calm -- 29.92 in1013.2 mb 0.00 in0.0 mm 0.00 in0.0 mm 0.00 in0.0 mm
01:15 AM -- -- - Calm Calm -- -- 0.00 in0.0 mm 0.00 in0.0 mm 0.00 in0.0 mm
01:10 AM 43.5°F6.4°C 43.0°F6.1°C 98% Calm Calm -- 29.94 in1013.9 mb 0.00 in0.0 mm 0.00 in0.0 mm 0.00 in0.0 mm
01:05 AM 43.4°F6.3°C 42.8°F6.0°C 98% Calm Calm -- 29.95 in1014.2 mb 0.00 in0.0 mm 0.00 in0.0 mm 0.00 in0.0 mm
01:00 AM 43.5°F6.4°C 43.0°F6.1°C 98% Calm Calm -- 29.95 in1014.2 mb 0.00 in0.0 mm 0.00 in0.0 mm 0.00 in0.0 mm
12:55 AM 43.5°F6.4°C 43.0°F6.1°C 98% Calm Calm -- 29.95 in1014.2 mb 0.00 in0.0 mm 0.00 in0.0 mm 0.00 in0.0 mm
12:50 AM 43.7°F6.5°C 43.2°F6.2°C 98% Calm Calm -- 29.95 in1014.2 mb 0.00 in0.0 mm 0.00 in0.0 mm 0.00 in0.0 mm
12:45 AM 43.9°F6.6°C 43.4°F6.3°C 98% Calm Calm -- 29.95 in1014.2 mb 0.00 in0.0 mm 0.00 in0.0 mm 0.00 in0.0 mm
12:40 AM 44.2°F6.8°C 43.6°F6.4°C 98% Calm Calm -- 29.94 in1013.9 mb 0.00 in0.0 mm 0.00 in0.0 mm 0.00 in0.0 mm
12:35 AM 44.4°F6.9°C 43.9°F6.6°C 98% Calm Calm -- 29.92 in1013.2 mb 0.00 in0.0 mm 0.00 in0.0 mm 0.00 in0.0 mm
12:30 AM 44.5°F6.9°C 43.9°F6.6°C 98% Calm Calm -- 29.92 in1013.2 mb 0.00 in0.0 mm 0.00 in0.0 mm 0.00 in0.0 mm
12:25 AM 44.6°F7.0°C 44.1°F6.7°C 98% Calm Calm -- 29.92 in1013.2 mb 0.00 in0.0 mm 0.00 in0.0 mm 0.00 in0.0 mm
12:20 AM 44.8°F7.1°C 44.3°F6.8°C 98% Calm Calm -- 29.92 in1013.2 mb 0.00 in0.0 mm 0.00 in0.0 mm 0.00 in0.0 mm
12:15 AM 45.0°F7.2°C 44.5°F6.9°C 98% Calm Calm -- 29.92 in1013.2 mb 0.00 in0.0 mm 0.00 in0.0 mm 0.00 in0.0 mm
12:10 AM 45.4°F7.4°C 44.8°F7.1°C 98% Calm Calm -- 29.94 in1013.9 mb 0.00 in0.0 mm 0.00 in0.0 mm 0.00 in0.0 mm
12:05 AM 45.6°F7.6°C 45.1°F7.3°C 98% Calm Calm -- 29.95 in1014.2 mb 0.00 in0.0 mm 0.00 in0.0 mm 0.00 in0.0 mm
12:00 AM 45.9°F7.7°C 45.3°F7.4°C 98% Calm Calm -- 29.95 in1014.2 mb 0.00 in0.0 mm 0.00 in0.0 mm 0.00 in0.0 mm